sensor_id;sensor_type;location;lat;lon;timestamp;P1;durP1;ratioP1;P2;durP2;ratioP2
34978;SDS011;21185;50.978;13.720;2022-07-06T00:04:37;1.77;;;0.80;;
34978;SDS011;21185;50.978;13.720;2022-07-06T00:09:40;1.05;;;0.90;;
34978;SDS011;21185;50.978;13.720;2022-07-06T00:14:44;3.88;;;0.98;;
34978;SDS011;21185;50.978;13.720;2022-07-06T00:19:47;3.75;;;1.10;;
34978;SDS011;21185;50.978;13.720;2022-07-06T00:24:50;5.65;;;1.10;;
34978;SDS011;21185;50.978;13.720;2022-07-06T00:29:53;6.05;;;1.05;;
34978;SDS011;21185;50.978;13.720;2022-07-06T00:34:56;1.10;;;0.70;;
34978;SDS011;21185;50.978;13.720;2022-07-06T00:39:59;4.60;;;0.80;;
34978;SDS011;21185;50.978;13.720;2022-07-06T00:45:01;2.28;;;0.93;;
34978;SDS011;21185;50.978;13.720;2022-07-06T00:50:05;1.20;;;0.73;;
34978;SDS011;21185;50.978;13.720;2022-07-06T00:55:25;1.33;;;1.00;;
34978;SDS011;21185;50.978;13.720;2022-07-06T01:00:30;1.17;;;0.70;;
34978;SDS011;21185;50.978;13.720;2022-07-06T01:05:34;1.30;;;0.88;;
34978;SDS011;21185;50.978;13.720;2022-07-06T01:10:37;0.93;;;0.70;;
34978;SDS011;21185;50.978;13.720;2022-07-06T01:15:41;1.23;;;0.88;;
34978;SDS011;21185;50.978;13.720;2022-07-06T01:20:43;3.08;;;1.15;;
34978;SDS011;21185;50.978;13.720;2022-07-06T01:25:46;2.83;;;2.08;;
34978;SDS011;21185;50.978;13.720;2022-07-06T01:30:49;1.25;;;0.80;;
34978;SDS011;21185;50.978;13.720;2022-07-06T01:35:52;0.90;;;0.80;;
34978;SDS011;21185;50.978;13.720;2022-07-06T01:40:55;1.00;;;0.90;;
34978;SDS011;21185;50.978;13.720;2022-07-06T01:45:58;0.95;;;0.73;;
34978;SDS011;21185;50.978;13.720;2022-07-06T01:51:01;3.67;;;0.90;;
34978;SDS011;21185;50.978;13.720;2022-07-06T01:56:04;1.33;;;0.90;;
34978;SDS011;21185;50.978;13.720;2022-07-06T02:01:09;0.55;;;0.50;;
34978;SDS011;21185;50.978;13.720;2022-07-06T02:06:15;2.42;;;1.10;;
34978;SDS011;21185;50.978;13.720;2022-07-06T02:11:21;5.45;;;1.17;;
34978;SDS011;21185;50.978;13.720;2022-07-06T02:16:24;2.25;;;0.88;;
34978;SDS011;21185;50.978;13.720;2022-07-06T02:21:28;2.85;;;0.85;;
34978;SDS011;21185;50.978;13.720;2022-07-06T02:26:31;0.70;;;0.60;;
34978;SDS011;21185;50.978;13.720;2022-07-06T02:31:35;1.25;;;0.95;;
34978;SDS011;21185;50.978;13.720;2022-07-06T02:36:39;0.70;;;0.50;;
34978;SDS011;21185;50.978;13.720;2022-07-06T02:41:42;1.55;;;0.88;;
34978;SDS011;21185;50.978;13.720;2022-07-06T02:46:45;2.15;;;0.82;;
34978;SDS011;21185;50.978;13.720;2022-07-06T02:51:48;1.23;;;0.90;;
34978;SDS011;21185;50.978;13.720;2022-07-06T02:56:51;2.40;;;1.10;;
34978;SDS011;21185;50.978;13.720;2022-07-06T03:01:56;1.77;;;0.70;;
34978;SDS011;21185;50.978;13.720;2022-07-06T03:06:59;1.75;;;1.10;;
34978;SDS011;21185;50.978;13.720;2022-07-06T03:12:03;1.52;;;0.90;;
34978;SDS011;21185;50.978;13.720;2022-07-06T03:17:09;1.30;;;0.82;;
34978;SDS011;21185;50.978;13.720;2022-07-06T03:22:13;2.22;;;1.10;;
34978;SDS011;21185;50.978;13.720;2022-07-06T03:27:16;1.00;;;0.90;;
34978;SDS011;21185;50.978;13.720;2022-07-06T03:32:19;2.33;;;1.25;;
34978;SDS011;21185;50.978;13.720;2022-07-06T03:37:23;2.72;;;1.20;;
34978;SDS011;21185;50.978;13.720;2022-07-06T03:42:25;5.50;;;1.63;;
34978;SDS011;21185;50.978;13.720;2022-07-06T03:47:28;2.67;;;1.58;;
34978;SDS011;21185;50.978;13.720;2022-07-06T03:52:32;2.08;;;1.10;;
34978;SDS011;21185;50.978;13.720;2022-07-06T03:57:38;7.35;;;0.98;;
34978;SDS011;21185;50.978;13.720;2022-07-06T04:02:47;3.67;;;1.85;;
34978;SDS011;21185;50.978;13.720;2022-07-06T04:07:55;5.35;;;1.75;;
34978;SDS011;21185;50.978;13.720;2022-07-06T04:13:06;5.05;;;1.55;;
34978;SDS011;21185;50.978;13.720;2022-07-06T04:18:10;1.75;;;1.27;;
34978;SDS011;21185;50.978;13.720;2022-07-06T04:23:20;6.47;;;1.20;;
34978;SDS011;21185;50.978;13.720;2022-07-06T04:28:24;2.17;;;1.63;;
34978;SDS011;21185;50.978;13.720;2022-07-06T04:33:27;2.00;;;1.08;;
34978;SDS011;21185;50.978;13.720;2022-07-06T04:38:31;11.02;;;1.15;;
34978;SDS011;21185;50.978;13.720;2022-07-06T04:43:38;1.83;;;1.08;;
34978;SDS011;21185;50.978;13.720;2022-07-06T04:48:42;1.95;;;1.15;;
34978;SDS011;21185;50.978;13.720;2022-07-06T04:53:52;2.15;;;1.17;;
34978;SDS011;21185;50.978;13.720;2022-07-06T04:58:56;1.70;;;1.02;;
34978;SDS011;21185;50.978;13.720;2022-07-06T05:04:00;1.98;;;1.48;;
34978;SDS011;21185;50.978;13.720;2022-07-06T05:09:03;2.47;;;1.30;;
34978;SDS011;21185;50.978;13.720;2022-07-06T05:14:07;3.05;;;1.05;;
34978;SDS011;21185;50.978;13.720;2022-07-06T05:19:11;3.88;;;1.30;;
34978;SDS011;21185;50.978;13.720;2022-07-06T05:24:14;2.65;;;1.58;;
34978;SDS011;21185;50.978;13.720;2022-07-06T05:29:18;3.03;;;1.45;;
34978;SDS011;21185;50.978;13.720;2022-07-06T05:34:21;3.38;;;1.45;;
34978;SDS011;21185;50.978;13.720;2022-07-06T05:39:24;3.22;;;1.55;;
34978;SDS011;21185;50.978;13.720;2022-07-06T05:44:27;3.55;;;1.50;;
34978;SDS011;21185;50.978;13.720;2022-07-06T05:49:30;2.47;;;1.23;;
34978;SDS011;21185;50.978;13.720;2022-07-06T05:55:11;1.83;;;1.30;;
34978;SDS011;21185;50.978;13.720;2022-07-06T06:00:17;1.67;;;1.15;;
34978;SDS011;21185;50.978;13.720;2022-07-06T06:05:25;2.58;;;1.17;;
34978;SDS011;21185;50.978;13.720;2022-07-06T06:10:34;2.92;;;1.20;;
34978;SDS011;21185;50.978;13.720;2022-07-06T06:15:41;3.00;;;1.00;;
34978;SDS011;21185;50.978;13.720;2022-07-06T06:20:45;2.65;;;1.10;;
34978;SDS011;21185;50.978;13.720;2022-07-06T06:25:48;4.55;;;1.30;;
34978;SDS011;21185;50.978;13.720;2022-07-06T06:30:51;1.77;;;1.08;;
34978;SDS011;21185;50.978;13.720;2022-07-06T06:35:54;1.77;;;0.90;;
34978;SDS011;21185;50.978;13.720;2022-07-06T06:40:57;3.22;;;0.73;;
34978;SDS011;21185;50.978;13.720;2022-07-06T06:46:00;1.48;;;0.85;;
34978;SDS011;21185;50.978;13.720;2022-07-06T06:51:04;3.28;;;1.38;;
34978;SDS011;21185;50.978;13.720;2022-07-06T06:56:06;0.82;;;0.70;;
34978;SDS011;21185;50.978;13.720;2022-07-06T07:01:10;4.10;;;0.90;;
34978;SDS011;21185;50.978;13.720;2022-07-06T07:06:13;2.90;;;0.90;;
34978;SDS011;21185;50.978;13.720;2022-07-06T07:11:16;1.13;;;0.65;;
34978;SDS011;21185;50.978;13.720;2022-07-06T07:16:19;2.53;;;0.93;;
34978;SDS011;21185;50.978;13.720;2022-07-06T07:21:23;2.03;;;0.80;;
34978;SDS011;21185;50.978;13.720;2022-07-06T07:26:25;1.85;;;0.80;;
34978;SDS011;21185;50.978;13.720;2022-07-06T07:31:28;3.03;;;0.70;;
34978;SDS011;21185;50.978;13.720;2022-07-06T07:36:32;2.47;;;0.73;;
34978;SDS011;21185;50.978;13.720;2022-07-06T07:41:35;4.95;;;1.02;;
34978;SDS011;21185;50.978;13.720;2022-07-06T07:46:40;4.85;;;0.90;;
34978;SDS011;21185;50.978;13.720;2022-07-06T07:51:43;2.35;;;0.90;;
34978;SDS011;21185;50.978;13.720;2022-07-06T07:56:49;2.15;;;0.77;;
34978;SDS011;21185;50.978;13.720;2022-07-06T08:01:52;6.65;;;1.02;;
34978;SDS011;21185;50.978;13.720;2022-07-06T08:06:56;1.08;;;0.60;;
34978;SDS011;21185;50.978;13.720;2022-07-06T08:12:02;4.28;;;0.68;;
34978;SDS011;21185;50.978;13.720;2022-07-06T08:17:07;1.05;;;0.73;;
34978;SDS011;21185;50.978;13.720;2022-07-06T08:22:10;6.47;;;0.82;;
34978;SDS011;21185;50.978;13.720;2022-07-06T08:27:13;3.10;;;0.80;;
34978;SDS011;21185;50.978;13.720;2022-07-06T08:32:17;1.20;;;0.90;;
34978;SDS011;21185;50.978;13.720;2022-07-06T08:37:42;4.93;;;0.65;;
34978;SDS011;21185;50.978;13.720;2022-07-06T08:42:45;1.23;;;0.73;;
34978;SDS011;21185;50.978;13.720;2022-07-06T08:47:50;3.30;;;0.60;;
34978;SDS011;21185;50.978;13.720;2022-07-06T08:52:56;0.40;;;0.40;;
34978;SDS011;21185;50.978;13.720;2022-07-06T08:58:00;5.80;;;0.70;;
34978;SDS011;21185;50.978;13.720;2022-07-06T09:03:03;3.50;;;0.60;;
34978;SDS011;21185;50.978;13.720;2022-07-06T09:08:08;3.85;;;1.10;;
34978;SDS011;21185;50.978;13.720;2022-07-06T09:13:11;3.33;;;0.75;;
34978;SDS011;21185;50.978;13.720;2022-07-06T09:18:14;1.08;;;0.50;;
34978;SDS011;21185;50.978;13.720;2022-07-06T09:23:18;1.38;;;0.50;;
34978;SDS011;21185;50.978;13.720;2022-07-06T09:28:21;0.75;;;0.55;;
34978;SDS011;21185;50.978;13.720;2022-07-06T09:33:25;1.00;;;0.70;;
34978;SDS011;21185;50.978;13.720;2022-07-06T09:38:28;0.65;;;0.63;;
34978;SDS011;21185;50.978;13.720;2022-07-06T09:43:32;1.17;;;0.30;;
34978;SDS011;21185;50.978;13.720;2022-07-06T09:48:37;0.60;;;0.20;;
34978;SDS011;21185;50.978;13.720;2022-07-06T09:53:43;2.15;;;0.40;;
34978;SDS011;21185;50.978;13.720;2022-07-06T09:58:56;1.13;;;0.50;;
34978;SDS011;21185;50.978;13.720;2022-07-06T10:04:05;1.13;;;0.60;;
34978;SDS011;21185;50.978;13.720;2022-07-06T10:09:12;0.93;;;0.57;;
34978;SDS011;21185;50.978;13.720;2022-07-06T10:14:22;3.05;;;0.80;;
34978;SDS011;21185;50.978;13.720;2022-07-06T10:19:28;0.60;;;0.50;;
34978;SDS011;21185;50.978;13.720;2022-07-06T10:24:32;3.03;;;0.55;;
34978;SDS011;21185;50.978;13.720;2022-07-06T10:29:41;1.08;;;0.70;;
34978;SDS011;21185;50.978;13.720;2022-07-06T10:34:45;3.65;;;0.68;;
34978;SDS011;21185;50.978;13.720;2022-07-06T10:39:48;0.70;;;0.50;;
34978;SDS011;21185;50.978;13.720;2022-07-06T10:45:11;5.20;;;0.95;;
34978;SDS011;21185;50.978;13.720;2022-07-06T10:50:16;0.40;;;0.40;;
34978;SDS011;21185;50.978;13.720;2022-07-06T11:00:51;4.93;;;1.27;;
34978;SDS011;21185;50.978;13.720;2022-07-06T11:05:58;0.85;;;0.75;;
34978;SDS011;21185;50.978;13.720;2022-07-06T11:16:23;1.83;;;0.80;;
34978;SDS011;21185;50.978;13.720;2022-07-06T11:26:44;3.75;;;0.95;;
34978;SDS011;21185;50.978;13.720;2022-07-06T11:31:50;0.70;;;0.60;;
34978;SDS011;21185;50.978;13.720;2022-07-06T11:36:58;0.85;;;0.65;;
34978;SDS011;21185;50.978;13.720;2022-07-06T11:42:10;1.60;;;0.73;;
34978;SDS011;21185;50.978;13.720;2022-07-06T11:47:15;3.05;;;0.80;;
34978;SDS011;21185;50.978;13.720;2022-07-06T11:52:25;3.63;;;0.80;;
34978;SDS011;21185;50.978;13.720;2022-07-06T11:57:29;2.35;;;0.93;;
34978;SDS011;21185;50.978;13.720;2022-07-06T12:02:35;1.53;;;0.73;;
34978;SDS011;21185;50.978;13.720;2022-07-06T12:07:38;1.92;;;0.80;;
34978;SDS011;21185;50.978;13.720;2022-07-06T12:12:41;2.05;;;0.77;;
34978;SDS011;21185;50.978;13.720;2022-07-06T12:17:47;2.38;;;0.80;;
34978;SDS011;21185;50.978;13.720;2022-07-06T12:23:00;1.70;;;0.77;;
34978;SDS011;21185;50.978;13.720;2022-07-06T12:28:04;1.90;;;0.93;;
34978;SDS011;21185;50.978;13.720;2022-07-06T12:33:12;2.92;;;0.80;;
34978;SDS011;21185;50.978;13.720;2022-07-06T12:38:26;1.75;;;0.88;;
34978;SDS011;21185;50.978;13.720;2022-07-06T12:43:39;4.22;;;1.02;;
34978;SDS011;21185;50.978;13.720;2022-07-06T12:48:53;1.10;;;0.90;;
34978;SDS011;21185;50.978;13.720;2022-07-06T12:54:12;1.45;;;0.60;;
34978;SDS011;21185;50.978;13.720;2022-07-06T12:59:21;1.73;;;0.75;;
34978;SDS011;21185;50.978;13.720;2022-07-06T13:04:29;4.22;;;0.95;;
34978;SDS011;21185;50.978;13.720;2022-07-06T13:09:36;3.45;;;1.10;;
34978;SDS011;21185;50.978;13.720;2022-07-06T13:14:39;7.13;;;0.63;;
34978;SDS011;21185;50.978;13.720;2022-07-06T13:19:42;1.75;;;0.60;;
34978;SDS011;21185;50.978;13.720;2022-07-06T13:24:46;0.57;;;0.55;;
34978;SDS011;21185;50.978;13.720;2022-07-06T13:29:49;0.57;;;0.57;;
34978;SDS011;21185;50.978;13.720;2022-07-06T13:34:52;0.50;;;0.50;;
34978;SDS011;21185;50.978;13.720;2022-07-06T13:39:55;2.85;;;0.70;;
34978;SDS011;21185;50.978;13.720;2022-07-06T13:44:59;5.65;;;0.70;;
34978;SDS011;21185;50.978;13.720;2022-07-06T13:50:02;2.30;;;0.70;;
34978;SDS011;21185;50.978;13.720;2022-07-06T13:55:05;1.25;;;0.70;;
34978;SDS011;21185;50.978;13.720;2022-07-06T14:00:08;1.73;;;0.45;;
34978;SDS011;21185;50.978;13.720;2022-07-06T14:05:14;3.50;;;0.60;;
34978;SDS011;21185;50.978;13.720;2022-07-06T14:10:17;1.50;;;0.55;;
34978;SDS011;21185;50.978;13.720;2022-07-06T14:15:20;1.42;;;0.57;;
34978;SDS011;21185;50.978;13.720;2022-07-06T14:20:22;0.80;;;0.65;;
34978;SDS011;21185;50.978;13.720;2022-07-06T14:25:26;2.20;;;0.70;;
34978;SDS011;21185;50.978;13.720;2022-07-06T14:30:29;2.03;;;0.80;;
34978;SDS011;21185;50.978;13.720;2022-07-06T14:35:36;3.22;;;0.70;;
34978;SDS011;21185;50.978;13.720;2022-07-06T14:40:46;1.23;;;0.57;;
34978;SDS011;21185;50.978;13.720;2022-07-06T14:45:51;0.98;;;0.52;;
34978;SDS011;21185;50.978;13.720;2022-07-06T14:50:55;2.33;;;0.60;;
34978;SDS011;21185;50.978;13.720;2022-07-06T14:55:59;0.98;;;0.55;;
34978;SDS011;21185;50.978;13.720;2022-07-06T15:01:02;1.75;;;0.47;;
34978;SDS011;21185;50.978;13.720;2022-07-06T15:06:05;1.05;;;0.60;;
34978;SDS011;21185;50.978;13.720;2022-07-06T15:11:29;2.92;;;0.60;;
34978;SDS011;21185;50.978;13.720;2022-07-06T15:16:33;4.50;;;1.13;;
34978;SDS011;21185;50.978;13.720;2022-07-06T15:21:36;1.30;;;0.60;;
34978;SDS011;21185;50.978;13.720;2022-07-06T15:26:39;2.67;;;0.82;;
34978;SDS011;21185;50.978;13.720;2022-07-06T15:31:42;0.85;;;0.50;;
34978;SDS011;21185;50.978;13.720;2022-07-06T15:36:45;3.47;;;1.95;;
34978;SDS011;21185;50.978;13.720;2022-07-06T15:41:48;0.73;;;0.60;;
34978;SDS011;21185;50.978;13.720;2022-07-06T15:46:51;7.13;;;0.40;;
34978;SDS011;21185;50.978;13.720;2022-07-06T15:51:55;3.53;;;0.40;;
34978;SDS011;21185;50.978;13.720;2022-07-06T15:56:58;1.00;;;0.35;;
34978;SDS011;21185;50.978;13.720;2022-07-06T16:02:01;2.13;;;0.52;;
34978;SDS011;21185;50.978;13.720;2022-07-06T16:07:05;0.50;;;0.40;;
34978;SDS011;21185;50.978;13.720;2022-07-06T16:12:30;1.17;;;0.60;;
34978;SDS011;21185;50.978;13.720;2022-07-06T16:17:32;1.23;;;0.43;;
34978;SDS011;21185;50.978;13.720;2022-07-06T16:22:36;1.13;;;0.40;;
34978;SDS011;21185;50.978;13.720;2022-07-06T16:27:39;0.82;;;0.40;;
34978;SDS011;21185;50.978;13.720;2022-07-06T16:32:42;0.50;;;0.30;;
34978;SDS011;21185;50.978;13.720;2022-07-06T16:37:45;1.90;;;0.30;;
34978;SDS011;21185;50.978;13.720;2022-07-06T16:42:49;1.77;;;0.60;;
34978;SDS011;21185;50.978;13.720;2022-07-06T16:47:52;0.32;;;0.30;;
34978;SDS011;21185;50.978;13.720;2022-07-06T16:52:55;1.83;;;0.60;;
34978;SDS011;21185;50.978;13.720;2022-07-06T16:57:58;3.03;;;0.50;;
34978;SDS011;21185;50.978;13.720;2022-07-06T17:03:01;2.22;;;0.50;;
34978;SDS011;21185;50.978;13.720;2022-07-06T17:08:04;0.52;;;0.40;;
34978;SDS011;21185;50.978;13.720;2022-07-06T17:13:08;0.32;;;0.30;;
34978;SDS011;21185;50.978;13.720;2022-07-06T17:18:11;0.40;;;0.30;;
34978;SDS011;21185;50.978;13.720;2022-07-06T17:23:15;0.50;;;0.35;;
34978;SDS011;21185;50.978;13.720;2022-07-06T17:28:18;3.25;;;0.50;;
34978;SDS011;21185;50.978;13.720;2022-07-06T17:33:21;1.80;;;0.55;;
34978;SDS011;21185;50.978;13.720;2022-07-06T17:38:25;0.40;;;0.40;;
34978;SDS011;21185;50.978;13.720;2022-07-06T17:43:28;0.60;;;0.38;;
34978;SDS011;21185;50.978;13.720;2022-07-06T17:48:46;1.95;;;0.40;;
34978;SDS011;21185;50.978;13.720;2022-07-06T17:53:49;0.45;;;0.32;;
34978;SDS011;21185;50.978;13.720;2022-07-06T17:58:52;1.02;;;0.40;;
34978;SDS011;21185;50.978;13.720;2022-07-06T18:03:55;0.68;;;0.43;;
34978;SDS011;21185;50.978;13.720;2022-07-06T18:08:58;1.15;;;0.50;;
34978;SDS011;21185;50.978;13.720;2022-07-06T18:14:02;0.47;;;0.40;;
34978;SDS011;21185;50.978;13.720;2022-07-06T18:19:06;0.55;;;0.40;;
34978;SDS011;21185;50.978;13.720;2022-07-06T18:24:09;1.65;;;0.40;;
34978;SDS011;21185;50.978;13.720;2022-07-06T18:29:12;1.13;;;0.50;;
34978;SDS011;21185;50.978;13.720;2022-07-06T18:34:15;1.55;;;0.50;;
34978;SDS011;21185;50.978;13.720;2022-07-06T18:39:18;0.88;;;0.20;;
34978;SDS011;21185;50.978;13.720;2022-07-06T18:44:21;0.47;;;0.30;;
34978;SDS011;21185;50.978;13.720;2022-07-06T18:49:24;0.63;;;0.40;;
34978;SDS011;21185;50.978;13.720;2022-07-06T18:54:27;2.25;;;0.60;;
34978;SDS011;21185;50.978;13.720;2022-07-06T18:59:31;1.15;;;0.32;;
34978;SDS011;21185;50.978;13.720;2022-07-06T19:04:34;0.45;;;0.28;;
34978;SDS011;21185;50.978;13.720;2022-07-06T19:09:38;0.60;;;0.47;;
34978;SDS011;21185;50.978;13.720;2022-07-06T19:14:41;1.80;;;0.60;;
34978;SDS011;21185;50.978;13.720;2022-07-06T19:19:44;0.93;;;0.50;;
34978;SDS011;21185;50.978;13.720;2022-07-06T19:24:47;2.90;;;0.50;;
34978;SDS011;21185;50.978;13.720;2022-07-06T19:29:50;5.35;;;0.50;;
34978;SDS011;21185;50.978;13.720;2022-07-06T19:34:56;0.43;;;0.30;;
34978;SDS011;21185;50.978;13.720;2022-07-06T19:39:58;5.28;;;0.32;;
34978;SDS011;21185;50.978;13.720;2022-07-06T19:45:03;0.47;;;0.45;;
34978;SDS011;21185;50.978;13.720;2022-07-06T19:50:08;2.38;;;0.47;;
34978;SDS011;21185;50.978;13.720;2022-07-06T19:55:11;2.40;;;0.50;;
34978;SDS011;21185;50.978;13.720;2022-07-06T20:00:15;0.70;;;0.50;;
34978;SDS011;21185;50.978;13.720;2022-07-06T20:05:18;0.63;;;0.40;;
34978;SDS011;21185;50.978;13.720;2022-07-06T20:10:21;3.20;;;0.60;;
34978;SDS011;21185;50.978;13.720;2022-07-06T20:15:24;1.10;;;0.30;;
34978;SDS011;21185;50.978;13.720;2022-07-06T20:20:27;0.20;;;0.20;;
34978;SDS011;21185;50.978;13.720;2022-07-06T20:25:30;1.75;;;0.38;;
34978;SDS011;21185;50.978;13.720;2022-07-06T20:30:34;0.55;;;0.30;;
34978;SDS011;21185;50.978;13.720;2022-07-06T20:35:37;0.90;;;0.60;;
34978;SDS011;21185;50.978;13.720;2022-07-06T20:40:40;0.40;;;0.40;;
34978;SDS011;21185;50.978;13.720;2022-07-06T20:45:43;0.50;;;0.30;;
34978;SDS011;21185;50.978;13.720;2022-07-06T20:50:45;0.93;;;0.50;;
34978;SDS011;21185;50.978;13.720;2022-07-06T20:55:48;0.43;;;0.30;;
34978;SDS011;21185;50.978;13.720;2022-07-06T21:00:51;2.83;;;0.40;;
34978;SDS011;21185;50.978;13.720;2022-07-06T21:05:54;1.45;;;0.30;;
34978;SDS011;21185;50.978;13.720;2022-07-06T21:10:56;2.60;;;0.70;;
34978;SDS011;21185;50.978;13.720;2022-07-06T21:16:00;5.10;;;1.30;;
34978;SDS011;21185;50.978;13.720;2022-07-06T21:21:02;1.90;;;0.40;;
34978;SDS011;21185;50.978;13.720;2022-07-06T21:26:06;0.32;;;0.32;;
34978;SDS011;21185;50.978;13.720;2022-07-06T21:31:12;2.50;;;0.68;;
34978;SDS011;21185;50.978;13.720;2022-07-06T21:36:16;0.17;;;0.17;;
34978;SDS011;21185;50.978;13.720;2022-07-06T21:41:18;1.77;;;0.60;;
34978;SDS011;21185;50.978;13.720;2022-07-06T21:46:21;0.30;;;0.25;;
34978;SDS011;21185;50.978;13.720;2022-07-06T21:51:24;4.18;;;0.55;;
34978;SDS011;21185;50.978;13.720;2022-07-06T21:56:26;0.40;;;0.40;;
34978;SDS011;21185;50.978;13.720;2022-07-06T22:01:29;3.20;;;0.60;;
34978;SDS011;21185;50.978;13.720;2022-07-06T22:06:32;1.02;;;0.30;;
34978;SDS011;21185;50.978;13.720;2022-07-06T22:11:34;0.73;;;0.40;;
34978;SDS011;21185;50.978;13.720;2022-07-06T22:16:44;0.88;;;0.40;;
34978;SDS011;21185;50.978;13.720;2022-07-06T22:21:47;0.55;;;0.50;;
34978;SDS011;21185;50.978;13.720;2022-07-06T22:26:51;0.77;;;0.32;;
34978;SDS011;21185;50.978;13.720;2022-07-06T22:31:53;0.73;;;0.38;;
34978;SDS011;21185;50.978;13.720;2022-07-06T22:36:56;2.03;;;0.38;;
34978;SDS011;21185;50.978;13.720;2022-07-06T22:41:59;1.27;;;0.47;;
34978;SDS011;21185;50.978;13.720;2022-07-06T22:47:02;0.40;;;0.38;;
34978;SDS011;21185;50.978;13.720;2022-07-06T22:52:05;3.28;;;0.73;;
34978;SDS011;21185;50.978;13.720;2022-07-06T22:57:09;1.73;;;0.47;;
34978;SDS011;21185;50.978;13.720;2022-07-06T23:02:11;1.33;;;0.50;;
34978;SDS011;21185;50.978;13.720;2022-07-06T23:07:15;5.90;;;0.80;;
34978;SDS011;21185;50.978;13.720;2022-07-06T23:12:18;0.80;;;0.40;;
34978;SDS011;21185;50.978;13.720;2022-07-06T23:22:28;1.13;;;0.50;;
34978;SDS011;21185;50.978;13.720;2022-07-06T23:27:31;1.48;;;0.60;;
34978;SDS011;21185;50.978;13.720;2022-07-06T23:32:34;3.40;;;0.40;;
34978;SDS011;21185;50.978;13.720;2022-07-06T23:37:37;1.45;;;0.38;;
34978;SDS011;21185;50.978;13.720;2022-07-06T23:42:43;0.45;;;0.38;;
34978;SDS011;21185;50.978;13.720;2022-07-06T23:47:46;3.10;;;0.60;;
34978;SDS011;21185;50.978;13.720;2022-07-06T23:52:48;0.40;;;0.38;;
34978;SDS011;21185;50.978;13.720;2022-07-06T23:57:51;2.80;;;0.55;;
